createdAt,value
2019-06-20T00:04:40.052Z,5.27
2019-06-20T00:09:42.232Z,5.27
2019-06-20T00:14:44.754Z,3.30
2019-06-20T00:19:46.954Z,3.20
2019-06-20T00:24:49.241Z,3.43
2019-06-20T00:29:51.476Z,5.10
2019-06-20T00:34:53.950Z,3.50
2019-06-20T00:39:56.752Z,4.40
2019-06-20T00:44:59.283Z,4.73
2019-06-20T00:50:01.841Z,4.00
2019-06-20T00:55:05.952Z,4.23
2019-06-20T01:00:09.493Z,3.77
2019-06-20T01:05:12.604Z,4.00
2019-06-20T01:10:16.710Z,6.20
2019-06-20T01:15:19.396Z,4.80
2019-06-20T01:20:23.543Z,3.90
2019-06-20T01:25:37.429Z,3.50
2019-06-20T01:30:40.384Z,4.27
2019-06-20T01:35:42.916Z,3.03
2019-06-20T01:40:45.331Z,6.87
2019-06-20T01:45:47.844Z,8.23
2019-06-20T01:50:50.146Z,4.50
2019-06-20T01:55:52.675Z,5.67
2019-06-20T02:00:55.782Z,5.30
2019-06-20T02:05:58.548Z,7.03
2019-06-20T02:11:00.927Z,4.73
2019-06-20T02:16:04.430Z,4.37
2019-06-20T02:21:07.401Z,6.07
2019-06-20T02:26:10.287Z,5.07
2019-06-20T02:31:13.090Z,6.10
2019-06-20T02:36:15.293Z,4.80
2019-06-20T02:41:17.968Z,7.03
2019-06-20T02:46:20.651Z,8.40
2019-06-20T02:51:25.600Z,4.90
2019-06-20T02:56:28.902Z,5.10
2019-06-20T03:01:31.110Z,6.47
2019-06-20T03:06:33.687Z,10.50
2019-06-20T03:11:35.892Z,8.73
2019-06-20T03:16:38.546Z,7.90
2019-06-20T03:21:41.679Z,6.30
2019-06-20T03:26:44.168Z,4.77
2019-06-20T03:31:46.374Z,11.53
2019-06-20T03:36:49.245Z,6.43
2019-06-20T03:41:51.607Z,6.27
2019-06-20T03:46:53.815Z,8.30
2019-06-20T03:51:55.992Z,6.93
2019-06-20T03:56:59.655Z,9.93
2019-06-20T04:02:01.898Z,6.90
2019-06-20T04:07:04.409Z,6.43
2019-06-20T04:12:06.904Z,5.70
2019-06-20T04:17:09.078Z,6.50
2019-06-20T04:22:12.612Z,5.67
2019-06-20T04:27:15.588Z,6.57
2019-06-20T04:32:18.043Z,7.87
2019-06-20T04:37:20.699Z,5.27
2019-06-20T04:42:24.159Z,6.70
2019-06-20T04:47:26.393Z,8.30
2019-06-20T04:52:28.557Z,7.73
2019-06-20T04:57:31.224Z,7.43
2019-06-20T05:02:33.999Z,5.03
2019-06-20T05:07:36.175Z,4.77
2019-06-20T05:12:38.356Z,5.43
2019-06-20T05:17:40.576Z,5.03
2019-06-20T05:22:44.362Z,4.43
2019-06-20T05:27:46.556Z,5.57
2019-06-20T05:32:48.791Z,8.77
2019-06-20T05:37:51.730Z,8.60
2019-06-20T05:42:54.650Z,8.00
2019-06-20T05:47:57.340Z,5.47
2019-06-20T05:52:59.533Z,9.57
2019-06-20T05:58:01.987Z,8.83
2019-06-20T06:03:07.089Z,5.93
2019-06-20T06:08:08.738Z,6.83
2019-06-20T06:13:11.301Z,6.83
2019-06-20T06:18:14.237Z,6.73
2019-06-20T06:23:17.438Z,6.60
2019-06-20T06:28:20.148Z,5.60
2019-06-20T06:33:22.307Z,7.27
2019-06-20T06:38:24.860Z,10.33
2019-06-20T06:43:27.153Z,6.60
2019-06-20T06:48:30.002Z,8.03
2019-06-20T06:53:32.424Z,6.80
2019-06-20T06:58:34.560Z,5.87
2019-06-20T07:03:37.382Z,7.90
2019-06-20T07:08:39.574Z,7.67
2019-06-20T07:13:42.581Z,7.67
2019-06-20T07:18:45.761Z,9.73
2019-06-20T07:23:48.225Z,8.73
2019-06-20T07:28:51.604Z,8.80
2019-06-20T07:33:54.042Z,7.13
2019-06-20T07:38:56.532Z,6.90
2019-06-20T07:43:58.740Z,6.53
2019-06-20T07:49:01.208Z,9.10
2019-06-20T07:54:05.256Z,6.07
2019-06-20T07:59:08.086Z,9.47
2019-06-20T08:04:10.858Z,6.00
2019-06-20T08:09:13.968Z,6.03
2019-06-20T08:14:16.522Z,6.47
2019-06-20T08:19:18.762Z,6.30
2019-06-20T08:24:21.621Z,8.10
2019-06-20T08:29:24.635Z,5.50
2019-06-20T08:34:27.424Z,5.47
2019-06-20T08:39:29.736Z,7.87
2019-06-20T08:44:32.725Z,6.03
2019-06-20T08:49:35.238Z,4.47
2019-06-20T08:54:38.468Z,5.47
2019-06-20T08:59:40.669Z,6.40
2019-06-20T09:04:42.947Z,5.23
2019-06-20T09:09:46.293Z,4.77
2019-06-20T09:14:48.906Z,7.33
2019-06-20T09:19:52.893Z,5.40
2019-06-20T09:24:56.806Z,4.97
2019-06-20T09:30:00.412Z,7.13
2019-06-20T09:35:04.190Z,4.13
2019-06-20T09:40:08.246Z,4.03
2019-06-20T09:45:11.545Z,6.00
2019-06-20T09:50:16.117Z,7.53
2019-06-20T09:55:18.759Z,5.97
2019-06-20T10:00:23.532Z,6.17
2019-06-20T10:05:26.097Z,5.70
2019-06-20T10:10:29.328Z,5.63
2019-06-20T10:15:35.781Z,4.47
2019-06-20T10:20:39.114Z,5.43
2019-06-20T10:25:41.722Z,5.67
2019-06-20T10:30:44.781Z,5.63
2019-06-20T10:35:48.445Z,5.23
2019-06-20T10:40:51.997Z,4.67
2019-06-20T10:45:55.062Z,5.03
2019-06-20T10:51:17.005Z,6.50
2019-06-20T10:56:19.457Z,6.27
2019-06-20T11:01:22.189Z,4.23
2019-06-20T11:06:24.350Z,4.10
2019-06-20T11:11:26.831Z,4.27
2019-06-20T11:16:29.275Z,5.47
2019-06-20T11:21:31.661Z,5.20
2019-06-20T11:26:34.096Z,3.47
2019-06-20T11:31:37.605Z,3.20
2019-06-20T11:36:42.430Z,4.30
2019-06-20T11:41:45.010Z,3.37
2019-06-20T11:46:47.886Z,2.70
2019-06-20T11:51:50.084Z,9.70
2019-06-20T11:56:52.266Z,3.60
2019-06-20T12:01:54.481Z,4.30
2019-06-20T12:06:56.623Z,4.10
2019-06-20T12:11:59.129Z,4.13
2019-06-20T12:17:01.640Z,2.93
2019-06-20T12:22:04.088Z,3.50
2019-06-20T12:27:06.610Z,2.57
2019-06-20T12:32:10.120Z,2.67
2019-06-20T12:37:13.018Z,2.77
2019-06-20T12:42:15.815Z,2.93
2019-06-20T12:47:19.746Z,2.97
2019-06-20T12:52:22.532Z,5.10
2019-06-20T12:57:24.835Z,4.13
2019-06-20T13:02:27.449Z,4.27
2019-06-20T13:07:29.714Z,5.80
2019-06-20T13:12:31.897Z,3.37
2019-06-20T13:17:34.914Z,6.33
2019-06-20T13:22:37.821Z,6.33
2019-06-20T13:27:43.282Z,4.27
2019-06-20T13:32:46.975Z,4.20
2019-06-20T13:37:50.134Z,4.77
2019-06-20T13:42:54.580Z,4.00
2019-06-20T13:47:56.639Z,4.13
2019-06-20T13:52:59.855Z,4.50
2019-06-20T13:58:02.135Z,4.93
2019-06-20T14:03:05.096Z,5.07
2019-06-20T14:08:07.904Z,7.20
2019-06-20T14:13:18.609Z,5.03
2019-06-20T14:18:14.429Z,5.20
2019-06-20T14:23:16.888Z,4.77
2019-06-20T14:28:19.128Z,5.50
2019-06-20T14:33:21.320Z,11.93
2019-06-20T14:38:24.093Z,5.80
2019-06-20T14:43:27.011Z,5.37
2019-06-20T14:48:30.012Z,4.90
2019-06-20T14:53:32.690Z,6.43
2019-06-20T14:58:35.068Z,10.03
2019-06-20T15:03:37.900Z,5.73
2019-06-20T15:08:41.315Z,5.60
2019-06-20T15:13:44.441Z,8.83
2019-06-20T15:18:50.199Z,6.77
2019-06-20T15:23:52.571Z,5.17
2019-06-20T15:28:56.976Z,5.07
2019-06-20T15:33:59.439Z,4.23
2019-06-20T15:39:02.098Z,7.03
2019-06-20T15:44:06.405Z,4.37
2019-06-20T15:49:16.165Z,3.60
2019-06-20T15:54:14.426Z,5.13
2019-06-20T15:59:17.259Z,3.93
2019-06-20T16:04:21.098Z,5.53
2019-06-20T16:09:23.716Z,7.97
2019-06-20T16:14:26.588Z,5.30
2019-06-20T16:19:28.801Z,4.17
2019-06-20T16:24:30.969Z,3.80
2019-06-20T16:29:34.047Z,4.30
2019-06-20T16:34:36.225Z,4.20
2019-06-20T16:39:38.722Z,5.33
2019-06-20T16:44:42.241Z,4.53
2019-06-20T16:49:45.110Z,4.57
2019-06-20T16:54:47.335Z,4.33
2019-06-20T16:59:49.654Z,10.27
2019-06-20T17:04:52.156Z,6.33
2019-06-20T17:09:54.457Z,5.20
2019-06-20T17:14:56.944Z,6.07
2019-06-20T17:19:59.515Z,6.83
2019-06-20T17:25:02.074Z,6.97
2019-06-20T17:30:06.838Z,4.97
2019-06-20T17:35:10.467Z,5.57
2019-06-20T17:40:14.387Z,4.53
2019-06-20T17:45:18.009Z,6.33
2019-06-20T17:50:21.589Z,6.87
2019-06-20T17:55:23.911Z,3.97
2019-06-20T18:00:27.423Z,6.33
2019-06-20T18:05:30.396Z,7.00
2019-06-20T18:10:32.747Z,6.00
2019-06-20T18:15:35.050Z,5.23
2019-06-20T18:20:39.325Z,4.00
2019-06-20T18:25:41.702Z,4.93
2019-06-20T18:30:45.750Z,4.97
2019-06-20T18:35:48.540Z,6.73
2019-06-20T18:40:51.218Z,4.03
2019-06-20T18:45:53.486Z,5.17
2019-06-20T18:50:56.800Z,7.10
2019-06-20T18:55:59.279Z,7.70
2019-06-20T19:01:02.642Z,5.13
2019-06-20T19:06:04.952Z,6.43
2019-06-20T19:11:07.444Z,12.00
2019-06-20T19:16:09.731Z,13.50
2019-06-20T19:21:12.256Z,10.77
2019-06-20T19:26:14.734Z,13.37
2019-06-20T19:31:18.349Z,9.53
2019-06-20T19:36:20.761Z,6.10
2019-06-20T19:41:23.502Z,8.73
2019-06-20T19:46:26.926Z,8.00
2019-06-20T19:51:29.890Z,14.63
2019-06-20T19:56:32.199Z,10.77
2019-06-20T20:01:34.496Z,13.57
2019-06-20T20:06:38.084Z,16.33
2019-06-20T20:11:41.610Z,15.37
2019-06-20T20:16:43.993Z,12.50
2019-06-20T20:21:47.290Z,14.27
2019-06-20T20:26:49.769Z,13.60
2019-06-20T20:31:51.974Z,16.43
2019-06-20T20:36:54.255Z,18.33
2019-06-20T20:41:57.081Z,15.60
2019-06-20T20:46:59.780Z,22.87
2019-06-20T20:52:02.528Z,20.30
2019-06-20T20:57:04.889Z,19.17
2019-06-20T21:02:07.886Z,21.20
2019-06-20T21:07:10.934Z,19.03
2019-06-20T21:12:13.805Z,17.80
2019-06-20T21:17:16.331Z,20.10
2019-06-20T21:22:18.536Z,16.43
2019-06-20T21:27:20.772Z,15.50
2019-06-20T21:32:23.554Z,16.43
2019-06-20T21:37:25.821Z,15.20
2019-06-20T21:42:28.735Z,14.13
2019-06-20T21:47:30.961Z,12.63
2019-06-20T21:52:33.447Z,12.70
2019-06-20T21:57:35.844Z,12.63
2019-06-20T22:02:38.708Z,13.23
2019-06-20T22:07:40.945Z,16.03
2019-06-20T22:12:43.462Z,15.50
2019-06-20T22:17:46.078Z,14.67
2019-06-20T22:22:49.061Z,16.10
2019-06-20T22:27:51.575Z,15.90
2019-06-20T22:32:54.690Z,14.53
2019-06-20T22:37:56.858Z,16.07
2019-06-20T22:42:59.654Z,15.77
2019-06-20T22:48:02.651Z,14.67
2019-06-20T22:53:05.055Z,15.27
2019-06-20T22:58:07.216Z,15.77
2019-06-20T23:03:10.590Z,16.77
2019-06-20T23:08:14.252Z,18.70
2019-06-20T23:13:17.625Z,14.80
2019-06-20T23:18:20.447Z,16.03
2019-06-20T23:23:22.641Z,16.63
2019-06-20T23:28:25.376Z,15.47
2019-06-20T23:33:27.691Z,13.17
2019-06-20T23:38:30.445Z,14.83
2019-06-20T23:43:32.925Z,14.83
2019-06-20T23:48:35.327Z,15.40
2019-06-20T23:53:37.700Z,15.13
2019-06-20T23:58:41.055Z,15.70
